sensor_id;sensor_type;location;lat;lon;timestamp;pressure;altitude;pressure_sealevel;temperature;humidity
43818;BME280;29868;47.360;18.984;2023-05-14T00:02:13;100763.31;;;12.05;100.00
43818;BME280;29868;47.360;18.984;2023-05-14T00:04:38;100762.28;;;11.93;100.00
43818;BME280;29868;47.360;18.984;2023-05-14T00:07:05;100749.16;;;11.89;100.00
43818;BME280;29868;47.360;18.984;2023-05-14T00:09:31;100751.81;;;11.92;100.00
43818;BME280;29868;47.360;18.984;2023-05-14T00:11:56;100743.88;;;11.84;100.00
43818;BME280;29868;47.360;18.984;2023-05-14T00:14:22;100745.56;;;11.82;100.00
43818;BME280;29868;47.360;18.984;2023-05-14T00:16:48;100738.69;;;11.84;100.00
43818;BME280;29868;47.360;18.984;2023-05-14T00:19:13;100731.38;;;11.65;100.00
43818;BME280;29868;47.360;18.984;2023-05-14T00:21:39;100728.78;;;11.66;100.00
43818;BME280;29868;47.360;18.984;2023-05-14T00:24:04;100733.13;;;11.66;100.00
43818;BME280;29868;47.360;18.984;2023-05-14T00:26:30;100733.09;;;11.64;100.00
43818;BME280;29868;47.360;18.984;2023-05-14T00:28:55;100730.19;;;11.48;100.00
43818;BME280;29868;47.360;18.984;2023-05-14T00:31:20;100719.97;;;11.57;100.00
43818;BME280;29868;47.360;18.984;2023-05-14T00:33:46;100720.06;;;11.63;100.00
43818;BME280;29868;47.360;18.984;2023-05-14T00:36:11;100720.03;;;11.60;100.00
43818;BME280;29868;47.360;18.984;2023-05-14T00:38:37;100710.31;;;11.50;100.00
43818;BME280;29868;47.360;18.984;2023-05-14T00:41:02;100709.44;;;11.49;100.00
43818;BME280;29868;47.360;18.984;2023-05-14T00:43:27;100704.19;;;11.48;100.00
43818;BME280;29868;47.360;18.984;2023-05-14T00:45:53;100706.84;;;11.51;100.00
43818;BME280;29868;47.360;18.984;2023-05-14T00:48:20;100700.78;;;11.50;100.00
43818;BME280;29868;47.360;18.984;2023-05-14T00:50:46;100705.84;;;11.42;100.00
43818;BME280;29868;47.360;18.984;2023-05-14T00:53:12;100705.03;;;11.47;100.00
43818;BME280;29868;47.360;18.984;2023-05-14T00:55:40;100698.91;;;11.41;100.00
43818;BME280;29868;47.360;18.984;2023-05-14T00:58:10;100696.34;;;11.44;100.00
43818;BME280;29868;47.360;18.984;2023-05-14T01:00:37;100704.97;;;11.43;100.00
43818;BME280;29868;47.360;18.984;2023-05-14T01:03:03;100696.28;;;11.41;100.00
43818;BME280;29868;47.360;18.984;2023-05-14T01:11:06;100690.28;;;11.44;100.00
43818;BME280;29868;47.360;18.984;2023-05-14T01:13:50;100686.69;;;11.39;100.00
43818;BME280;29868;47.360;18.984;2023-05-14T01:16:18;100684.03;;;11.36;100.00
43818;BME280;29868;47.360;18.984;2023-05-14T01:18:45;100682.31;;;11.36;100.00
43818;BME280;29868;47.360;18.984;2023-05-14T01:21:37;100686.63;;;11.36;100.00
43818;BME280;29868;47.360;18.984;2023-05-14T01:24:04;100681.41;;;11.34;100.00
43818;BME280;29868;47.360;18.984;2023-05-14T01:26:30;100678.88;;;11.37;100.00
43818;BME280;29868;47.360;18.984;2023-05-14T01:29:00;100671.09;;;11.39;100.00
43818;BME280;29868;47.360;18.984;2023-05-14T01:31:28;100672.88;;;11.41;100.00
43818;BME280;29868;47.360;18.984;2023-05-14T01:33:57;100668.56;;;11.43;100.00
43818;BME280;29868;47.360;18.984;2023-05-14T01:36:23;100667.75;;;11.46;100.00
43818;BME280;29868;47.360;18.984;2023-05-14T01:38:49;100664.09;;;11.35;100.00
43818;BME280;29868;47.360;18.984;2023-05-14T01:41:17;100658.13;;;11.40;100.00
43818;BME280;29868;47.360;18.984;2023-05-14T01:43:44;100646.00;;;11.42;100.00
43818;BME280;29868;47.360;18.984;2023-05-14T01:46:09;100643.47;;;11.45;100.00
43818;BME280;29868;47.360;18.984;2023-05-14T01:48:35;100634.63;;;11.36;100.00
43818;BME280;29868;47.360;18.984;2023-05-14T01:51:02;100638.13;;;11.38;100.00
43818;BME280;29868;47.360;18.984;2023-05-14T01:53:28;100640.84;;;11.44;100.00
43818;BME280;29868;47.360;18.984;2023-05-14T01:55:53;100636.41;;;11.40;100.00
43818;BME280;29868;47.360;18.984;2023-05-14T01:58:18;100637.28;;;11.37;100.00
43818;BME280;29868;47.360;18.984;2023-05-14T02:00:44;100632.91;;;11.36;100.00
43818;BME280;29868;47.360;18.984;2023-05-14T02:03:09;100633.81;;;11.38;100.00
43818;BME280;29868;47.360;18.984;2023-05-14T02:05:35;100632.13;;;11.40;100.00
43818;BME280;29868;47.360;18.984;2023-05-14T02:08:00;100641.59;;;11.37;100.00
43818;BME280;29868;47.360;18.984;2023-05-14T02:10:25;100637.34;;;11.42;100.00
43818;BME280;29868;47.360;18.984;2023-05-14T02:12:51;100639.00;;;11.38;100.00
43818;BME280;29868;47.360;18.984;2023-05-14T02:15:16;100635.47;;;11.33;100.00
43818;BME280;29868;47.360;18.984;2023-05-14T02:17:42;100631.03;;;11.28;100.00
43818;BME280;29868;47.360;18.984;2023-05-14T02:20:07;100631.09;;;11.32;100.00
43818;BME280;29868;47.360;18.984;2023-05-14T02:22:34;100641.34;;;11.22;100.00
43818;BME280;29868;47.360;18.984;2023-05-14T02:25:00;100635.22;;;11.21;100.00
43818;BME280;29868;47.360;18.984;2023-05-14T02:27:25;100631.16;;;11.35;100.00
43818;BME280;29868;47.360;18.984;2023-05-14T02:29:51;100637.09;;;11.28;100.00
43818;BME280;29868;47.360;18.984;2023-05-14T02:32:16;100634.41;;;11.24;100.00
43818;BME280;29868;47.360;18.984;2023-05-14T02:34:42;100635.34;;;11.27;100.00
43818;BME280;29868;47.360;18.984;2023-05-14T02:37:07;100636.34;;;11.35;100.00
43818;BME280;29868;47.360;18.984;2023-05-14T02:39:33;100634.50;;;11.28;100.00
43818;BME280;29868;47.360;18.984;2023-05-14T02:41:58;100629.41;;;11.33;100.00
43818;BME280;29868;47.360;18.984;2023-05-14T02:44:23;100623.09;;;11.20;100.00
43818;BME280;29868;47.360;18.984;2023-05-14T02:46:49;100630.03;;;11.21;100.00
43818;BME280;29868;47.360;18.984;2023-05-14T02:49:14;100631.81;;;11.24;100.00
43818;BME280;29868;47.360;18.984;2023-05-14T02:51:40;100631.00;;;11.26;100.00
43818;BME280;29868;47.360;18.984;2023-05-14T02:54:05;100629.09;;;11.16;100.00
43818;BME280;29868;47.360;18.984;2023-05-14T02:56:31;100629.22;;;11.24;100.00
43818;BME280;29868;47.360;18.984;2023-05-14T02:58:56;100630.00;;;11.18;100.00
43818;BME280;29868;47.360;18.984;2023-05-14T03:01:22;100623.03;;;11.17;100.00
43818;BME280;29868;47.360;18.984;2023-05-14T03:03:47;100620.34;;;11.11;100.00
43818;BME280;29868;47.360;18.984;2023-05-14T03:06:13;100616.09;;;11.16;100.00
43818;BME280;29868;47.360;18.984;2023-05-14T03:08:38;100616.09;;;11.16;100.00
43818;BME280;29868;47.360;18.984;2023-05-14T03:11:04;100614.16;;;11.06;100.00
43818;BME280;29868;47.360;18.984;2023-05-14T03:13:31;100624.81;;;11.18;100.00
43818;BME280;29868;47.360;18.984;2023-05-14T03:15:56;100616.94;;;11.15;100.00
43818;BME280;29868;47.360;18.984;2023-05-14T03:18:21;100627.41;;;11.19;100.00
43818;BME280;29868;47.360;18.984;2023-05-14T03:20:47;100621.47;;;11.25;100.00
43818;BME280;29868;47.360;18.984;2023-05-14T03:23:13;100612.69;;;11.20;100.00
43818;BME280;29868;47.360;18.984;2023-05-14T03:25:39;100611.88;;;11.23;100.00
43818;BME280;29868;47.360;18.984;2023-05-14T03:28:04;100613.47;;;11.14;100.00
43818;BME280;29868;47.360;18.984;2023-05-14T03:30:30;100620.50;;;11.20;100.00
43818;BME280;29868;47.360;18.984;2023-05-14T03:32:56;100619.75;;;11.27;100.00
43818;BME280;29868;47.360;18.984;2023-05-14T03:35:21;100615.34;;;11.22;100.00
43818;BME280;29868;47.360;18.984;2023-05-14T03:37:47;100618.75;;;11.20;100.00
43818;BME280;29868;47.360;18.984;2023-05-14T03:40:12;100610.00;;;11.14;100.00
43818;BME280;29868;47.360;18.984;2023-05-14T03:42:37;100607.34;;;11.12;100.00
43818;BME280;29868;47.360;18.984;2023-05-14T03:45:03;100615.38;;;11.25;100.00
43818;BME280;29868;47.360;18.984;2023-05-14T03:47:29;100602.34;;;11.23;100.00
43818;BME280;29868;47.360;18.984;2023-05-14T03:49:54;100604.69;;;11.06;100.00
43818;BME280;29868;47.360;18.984;2023-05-14T03:52:20;100596.78;;;11.02;100.00
43818;BME280;29868;47.360;18.984;2023-05-14T03:54:45;100606.63;;;11.19;100.00
43818;BME280;29868;47.360;18.984;2023-05-14T03:57:10;100613.50;;;11.16;100.00
43818;BME280;29868;47.360;18.984;2023-05-14T03:59:36;100614.41;;;11.19;100.00
43818;BME280;29868;47.360;18.984;2023-05-14T04:02:01;100615.97;;;11.10;100.00
43818;BME280;29868;47.360;18.984;2023-05-14T04:04:27;100616.97;;;11.16;100.00
43818;BME280;29868;47.360;18.984;2023-05-14T04:06:52;100616.88;;;11.12;100.00
43818;BME280;29868;47.360;18.984;2023-05-14T04:09:17;100614.28;;;11.12;100.00
43818;BME280;29868;47.360;18.984;2023-05-14T04:11:43;100602.22;;;11.14;100.00
43818;BME280;29868;47.360;18.984;2023-05-14T04:14:08;100606.47;;;11.10;100.00
43818;BME280;29868;47.360;18.984;2023-05-14T04:16:33;100609.06;;;11.10;100.00
43818;BME280;29868;47.360;18.984;2023-05-14T04:19:02;100604.69;;;11.09;100.00
43818;BME280;29868;47.360;18.984;2023-05-14T04:21:29;100611.63;;;11.09;100.00
43818;BME280;29868;47.360;18.984;2023-05-14T04:23:54;100611.81;;;11.18;100.00
43818;BME280;29868;47.360;18.984;2023-05-14T04:26:19;100607.44;;;11.17;100.00
43818;BME280;29868;47.360;18.984;2023-05-14T04:28:45;100600.56;;;11.19;100.00
43818;BME280;29868;47.360;18.984;2023-05-14T04:31:11;100596.09;;;11.12;100.00
43818;BME280;29868;47.360;18.984;2023-05-14T04:33:36;100599.59;;;11.14;100.00
43818;BME280;29868;47.360;18.984;2023-05-14T04:36:01;100604.81;;;11.15;100.00
43818;BME280;29868;47.360;18.984;2023-05-14T04:38:29;100600.47;;;11.14;100.00
43818;BME280;29868;47.360;18.984;2023-05-14T04:40:55;100605.56;;;11.10;100.00
43818;BME280;29868;47.360;18.984;2023-05-14T04:43:21;100592.75;;;11.17;100.00
43818;BME280;29868;47.360;18.984;2023-05-14T04:45:46;100594.34;;;11.11;100.00
43818;BME280;29868;47.360;18.984;2023-05-14T04:48:11;100591.75;;;11.12;100.00
43818;BME280;29868;47.360;18.984;2023-05-14T04:50:37;100603.94;;;11.15;100.00
43818;BME280;29868;47.360;18.984;2023-05-14T04:53:02;100595.34;;;11.17;100.00
43818;BME280;29868;47.360;18.984;2023-05-14T04:55:28;100591.00;;;11.18;100.00
43818;BME280;29868;47.360;18.984;2023-05-14T04:57:53;100597.16;;;11.23;100.00
43818;BME280;29868;47.360;18.984;2023-05-14T05:00:19;100591.88;;;11.20;100.00
43818;BME280;29868;47.360;18.984;2023-05-14T05:02:46;100589.41;;;11.28;100.00
43818;BME280;29868;47.360;18.984;2023-05-14T05:05:11;100582.66;;;11.37;100.00
43818;BME280;29868;47.360;18.984;2023-05-14T05:07:37;100590.34;;;11.31;100.00
43818;BME280;29868;47.360;18.984;2023-05-14T05:10:02;100591.28;;;11.35;100.00
43818;BME280;29868;47.360;18.984;2023-05-14T05:12:28;100588.59;;;11.30;100.00
43818;BME280;29868;47.360;18.984;2023-05-14T05:14:57;100592.25;;;11.41;100.00
43818;BME280;29868;47.360;18.984;2023-05-14T05:17:23;100588.84;;;11.44;100.00
43818;BME280;29868;47.360;18.984;2023-05-14T05:19:49;100587.00;;;11.38;100.00
43818;BME280;29868;47.360;18.984;2023-05-14T05:22:15;100586.06;;;11.33;100.00
43818;BME280;29868;47.360;18.984;2023-05-14T05:24:40;100586.94;;;11.35;100.00
43818;BME280;29868;47.360;18.984;2023-05-14T05:27:05;100586.28;;;11.49;100.00
43818;BME280;29868;47.360;18.984;2023-05-14T05:29:31;100589.47;;;11.32;100.00
43818;BME280;29868;47.360;18.984;2023-05-14T05:31:56;100594.91;;;11.46;100.00
43818;BME280;29868;47.360;18.984;2023-05-14T05:34:22;100593.13;;;11.43;100.00
43818;BME280;29868;47.360;18.984;2023-05-14T05:36:47;100590.59;;;11.47;100.00
43818;BME280;29868;47.360;18.984;2023-05-14T05:39:13;100588.78;;;11.42;100.00
43818;BME280;29868;47.360;18.984;2023-05-14T05:41:38;100593.22;;;11.48;100.00
43818;BME280;29868;47.360;18.984;2023-05-14T05:44:04;100588.97;;;11.55;100.00
43818;BME280;29868;47.360;18.984;2023-05-14T05:46:30;100586.38;;;11.55;100.00
43818;BME280;29868;47.360;18.984;2023-05-14T05:48:55;100589.00;;;11.56;100.00
43818;BME280;29868;47.360;18.984;2023-05-14T05:51:21;100590.63;;;11.50;100.00
43818;BME280;29868;47.360;18.984;2023-05-14T05:53:46;100594.97;;;11.51;100.00
43818;BME280;29868;47.360;18.984;2023-05-14T05:56:11;100594.03;;;11.45;100.00
43818;BME280;29868;47.360;18.984;2023-05-14T05:58:37;100601.03;;;11.48;100.00
43818;BME280;29868;47.360;18.984;2023-05-14T06:01:02;100595.50;;;11.28;100.00
43818;BME280;29868;47.360;18.984;2023-05-14T06:03:28;100599.00;;;11.32;100.00
43818;BME280;29868;47.360;18.984;2023-05-14T06:05:53;100599.97;;;11.37;100.00
43818;BME280;29868;47.360;18.984;2023-05-14T06:08:19;100599.94;;;11.35;100.00
43818;BME280;29868;47.360;18.984;2023-05-14T06:10:44;100597.47;;;11.43;100.00
43818;BME280;29868;47.360;18.984;2023-05-14T06:13:10;100597.44;;;11.41;100.00
43818;BME280;29868;47.360;18.984;2023-05-14T06:15:36;100601.63;;;11.32;100.00
43818;BME280;29868;47.360;18.984;2023-05-14T06:18:01;100600.91;;;11.40;100.00
43818;BME280;29868;47.360;18.984;2023-05-14T06:20:26;100600.00;;;11.40;100.00
43818;BME280;29868;47.360;18.984;2023-05-14T06:22:52;100606.06;;;11.37;100.00
43818;BME280;29868;47.360;18.984;2023-05-14T06:25:17;100607.72;;;11.34;100.00
43818;BME280;29868;47.360;18.984;2023-05-14T06:27:43;100599.13;;;11.39;100.00
43818;BME280;29868;47.360;18.984;2023-05-14T06:30:09;100598.34;;;11.43;100.00
43818;BME280;29868;47.360;18.984;2023-05-14T06:32:35;100600.91;;;11.40;100.00
43818;BME280;29868;47.360;18.984;2023-05-14T06:35:01;100601.78;;;11.41;100.00
43818;BME280;29868;47.360;18.984;2023-05-14T06:37:26;100598.31;;;11.40;100.00
43818;BME280;29868;47.360;18.984;2023-05-14T06:39:51;100598.56;;;11.56;100.00
43818;BME280;29868;47.360;18.984;2023-05-14T06:42:17;100583.75;;;11.52;100.00
43818;BME280;29868;47.360;18.984;2023-05-14T06:44:43;100582.72;;;11.43;100.00
43818;BME280;29868;47.360;18.984;2023-05-14T06:47:09;100582.84;;;11.51;100.00
43818;BME280;29868;47.360;18.984;2023-05-14T06:49:34;100580.50;;;11.68;100.00
43818;BME280;29868;47.360;18.984;2023-05-14T06:52:00;100574.84;;;11.95;100.00
43818;BME280;29868;47.360;18.984;2023-05-14T06:54:25;100571.16;;;11.81;100.00
43818;BME280;29868;47.360;18.984;2023-05-14T06:56:51;100573.13;;;11.96;100.00
43818;BME280;29868;47.360;18.984;2023-05-14T06:59:16;100580.00;;;11.92;100.00
43818;BME280;29868;47.360;18.984;2023-05-14T07:01:42;100567.97;;;12.00;100.00
43818;BME280;29868;47.360;18.984;2023-05-14T07:04:07;100569.94;;;12.20;100.00
43818;BME280;29868;47.360;18.984;2023-05-14T07:06:33;100561.41;;;12.30;100.00
43818;BME280;29868;47.360;18.984;2023-05-14T07:08:59;100559.59;;;12.24;100.00
43818;BME280;29868;47.360;18.984;2023-05-14T07:11:25;100562.44;;;12.43;100.00
43818;BME280;29868;47.360;18.984;2023-05-14T07:13:50;100559.81;;;12.43;100.00
43818;BME280;29868;47.360;18.984;2023-05-14T07:16:16;100555.66;;;12.60;100.00
43818;BME280;29868;47.360;18.984;2023-05-14T07:18:41;100552.41;;;12.82;100.00
43818;BME280;29868;47.360;18.984;2023-05-14T07:21:07;100547.31;;;12.98;100.00
43818;BME280;29868;47.360;18.984;2023-05-14T07:23:33;100547.00;;;12.64;100.00
43818;BME280;29868;47.360;18.984;2023-05-14T07:26:01;100547.31;;;12.98;100.00
43818;BME280;29868;47.360;18.984;2023-05-14T07:28:26;100547.41;;;13.05;100.00
43818;BME280;29868;47.360;18.984;2023-05-14T07:30:52;100547.63;;;13.31;100.00
43818;BME280;29868;47.360;18.984;2023-05-14T07:33:18;100545.78;;;13.20;100.00
43818;BME280;29868;47.360;18.984;2023-05-14T07:35:43;100543.28;;;13.32;100.00
43818;BME280;29868;47.360;18.984;2023-05-14T07:38:09;100545.16;;;13.50;100.00
43818;BME280;29868;47.360;18.984;2023-05-14T07:40:34;100544.47;;;13.75;100.00
43818;BME280;29868;47.360;18.984;2023-05-14T07:42:59;100545.09;;;13.41;100.00
43818;BME280;29868;47.360;18.984;2023-05-14T07:45:25;100536.41;;;13.42;100.00
43818;BME280;29868;47.360;18.984;2023-05-14T07:47:50;100540.81;;;13.50;100.00
43818;BME280;29868;47.360;18.984;2023-05-14T07:50:17;100539.03;;;13.42;100.00
43818;BME280;29868;47.360;18.984;2023-05-14T07:52:43;100535.50;;;13.36;100.00
43818;BME280;29868;47.360;18.984;2023-05-14T07:55:09;100525.84;;;13.25;100.00
43818;BME280;29868;47.360;18.984;2023-05-14T07:57:35;100518.22;;;13.54;100.00
43818;BME280;29868;47.360;18.984;2023-05-14T08:00:02;100520.09;;;13.82;100.00
43818;BME280;29868;47.360;18.984;2023-05-14T08:02:28;100509.59;;;13.66;100.00
43818;BME280;29868;47.360;18.984;2023-05-14T08:04:53;100503.56;;;13.77;100.00
43818;BME280;29868;47.360;18.984;2023-05-14T08:07:19;100505.22;;;13.61;100.00
43818;BME280;29868;47.360;18.984;2023-05-14T08:09:44;100502.72;;;13.83;100.00
43818;BME280;29868;47.360;18.984;2023-05-14T08:12:10;100501.91;;;13.96;100.00
43818;BME280;29868;47.360;18.984;2023-05-14T08:14:36;100501.88;;;13.88;100.00
43818;BME280;29868;47.360;18.984;2023-05-14T08:17:01;100492.34;;;14.03;100.00
43818;BME280;29868;47.360;18.984;2023-05-14T08:19:27;100494.16;;;14.22;100.00
43818;BME280;29868;47.360;18.984;2023-05-14T08:21:52;100488.75;;;13.72;100.00
43818;BME280;29868;47.360;18.984;2023-05-14T08:24:18;100487.91;;;13.79;100.00
43818;BME280;29868;47.360;18.984;2023-05-14T08:26:43;100491.38;;;13.78;100.00
43818;BME280;29868;47.360;18.984;2023-05-14T08:29:09;100496.69;;;13.99;100.00
43818;BME280;29868;47.360;18.984;2023-05-14T08:31:34;100487.97;;;13.91;100.00
43818;BME280;29868;47.360;18.984;2023-05-14T08:34:00;100487.09;;;13.91;100.00
43818;BME280;29868;47.360;18.984;2023-05-14T08:36:26;100483.59;;;13.88;100.00
43818;BME280;29868;47.360;18.984;2023-05-14T08:38:51;100473.19;;;13.95;100.00
43818;BME280;29868;47.360;18.984;2023-05-14T08:41:17;100472.22;;;13.73;100.00
43818;BME280;29868;47.360;18.984;2023-05-14T08:44:22;100474.03;;;13.91;100.00
43818;BME280;29868;47.360;18.984;2023-05-14T08:46:52;100478.47;;;14.18;100.00
43818;BME280;29868;47.360;18.984;2023-05-14T08:51:58;100480.03;;;13.74;100.00
43818;BME280;29868;47.360;18.984;2023-05-14T08:54:24;100464.41;;;13.79;100.00
43818;BME280;29868;47.360;18.984;2023-05-14T08:56:51;100458.22;;;13.58;100.00
43818;BME280;29868;47.360;18.984;2023-05-14T08:59:17;100463.59;;;13.97;100.00
43818;BME280;29868;47.360;18.984;2023-05-14T09:01:46;100472.13;;;13.57;100.00
43818;BME280;29868;47.360;18.984;2023-05-14T09:04:18;100468.66;;;13.63;100.00
43818;BME280;29868;47.360;18.984;2023-05-14T09:06:47;100464.91;;;13.21;100.00
43818;BME280;29868;47.360;18.984;2023-05-14T09:09:13;100462.41;;;13.30;100.00
43818;BME280;29868;47.360;18.984;2023-05-14T09:11:45;100457.97;;;13.22;100.00
43818;BME280;29868;47.360;18.984;2023-05-14T09:14:10;100465.03;;;13.30;100.00
43818;BME280;29868;47.360;18.984;2023-05-14T09:16:37;100461.59;;;13.37;100.00
43818;BME280;29868;47.360;18.984;2023-05-14T09:19:06;100449.47;;;13.50;100.00
43818;BME280;29868;47.360;18.984;2023-05-14T09:21:32;100441.50;;;13.26;100.00
43818;BME280;29868;47.360;18.984;2023-05-14T09:23:57;100446.78;;;13.35;100.00
43818;BME280;29868;47.360;18.984;2023-05-14T09:26:23;100444.19;;;13.33;100.00
43818;BME280;29868;47.360;18.984;2023-05-14T09:28:53;100435.53;;;13.47;100.00
43818;BME280;29868;47.360;18.984;2023-05-14T09:31:20;100433.78;;;13.47;100.00
43818;BME280;29868;47.360;18.984;2023-05-14T09:33:49;100443.25;;;13.28;100.00
43818;BME280;29868;47.360;18.984;2023-05-14T09:36:16;100424.97;;;13.25;100.00
43818;BME280;29868;47.360;18.984;2023-05-14T09:38:41;100410.22;;;13.27;100.00
43818;BME280;29868;47.360;18.984;2023-05-14T09:41:06;100411.94;;;13.25;100.00
43818;BME280;29868;47.360;18.984;2023-05-14T09:43:32;100404.97;;;13.26;100.00
43818;BME280;29868;47.360;18.984;2023-05-14T09:45:57;100404.25;;;13.54;100.00
43818;BME280;29868;47.360;18.984;2023-05-14T09:48:24;100401.72;;;13.77;100.00
43818;BME280;29868;47.360;18.984;2023-05-14T09:50:49;100407.75;;;13.62;100.00
43818;BME280;29868;47.360;18.984;2023-05-14T09:53:16;100403.41;;;13.57;100.00
43818;BME280;29868;47.360;18.984;2023-05-14T09:55:42;100395.59;;;13.71;100.00
43818;BME280;29868;47.360;18.984;2023-05-14T09:58:07;100392.16;;;13.73;100.00
43818;BME280;29868;47.360;18.984;2023-05-14T10:00:33;100391.31;;;13.83;100.00
43818;BME280;29868;47.360;18.984;2023-05-14T10:03:04;100372.09;;;13.63;100.00
43818;BME280;29868;47.360;18.984;2023-05-14T10:05:40;100348.56;;;13.48;100.00
43818;BME280;29868;47.360;18.984;2023-05-14T10:08:28;100337.31;;;13.61;100.00
43818;BME280;29868;47.360;18.984;2023-05-14T10:10:57;100335.56;;;13.57;100.00
43818;BME280;29868;47.360;18.984;2023-05-14T10:13:32;100339.03;;;13.67;100.00
43818;BME280;29868;47.360;18.984;2023-05-14T10:16:10;100335.63;;;13.84;100.00
43818;BME280;29868;47.360;18.984;2023-05-14T10:18:42;100324.31;;;13.93;100.00
43818;BME280;29868;47.360;18.984;2023-05-14T10:21:13;100304.28;;;13.84;100.00
43818;BME280;29868;47.360;18.984;2023-05-14T10:23:39;100305.13;;;13.70;100.00
43818;BME280;29868;47.360;18.984;2023-05-14T10:26:07;100313.00;;;13.93;100.00
43818;BME280;29868;47.360;18.984;2023-05-14T10:28:33;100328.69;;;13.99;100.00
43818;BME280;29868;47.360;18.984;2023-05-14T10:30:59;100337.34;;;13.79;100.00
43818;BME280;29868;47.360;18.984;2023-05-14T10:33:25;100336.50;;;13.91;100.00
43818;BME280;29868;47.360;18.984;2023-05-14T10:36:01;100340.84;;;13.97;100.00
43818;BME280;29868;47.360;18.984;2023-05-14T10:38:29;100341.69;;;13.85;100.00
43818;BME280;29868;47.360;18.984;2023-05-14T10:40:58;100337.31;;;13.73;100.00
43818;BME280;29868;47.360;18.984;2023-05-14T10:43:26;100335.63;;;13.87;100.00
43818;BME280;29868;47.360;18.984;2023-05-14T10:45:54;100332.97;;;13.68;100.00
43818;BME280;29868;47.360;18.984;2023-05-14T10:48:20;100330.41;;;13.87;100.00
43818;BME280;29868;47.360;18.984;2023-05-14T10:50:47;100325.16;;;13.78;100.00
43818;BME280;29868;47.360;18.984;2023-05-14T10:53:14;100327.78;;;13.89;100.00
43818;BME280;29868;47.360;18.984;2023-05-14T10:55:41;100328.69;;;13.94;100.00
43818;BME280;29868;47.360;18.984;2023-05-14T10:58:09;100321.66;;;13.82;100.00
43818;BME280;29868;47.360;18.984;2023-05-14T11:00:35;100319.09;;;13.93;100.00
43818;BME280;29868;47.360;18.984;2023-05-14T11:03:03;100322.53;;;13.71;100.00
43818;BME280;29868;47.360;18.984;2023-05-14T11:05:30;100313.84;;;13.78;100.00
43818;BME280;29868;47.360;18.984;2023-05-14T11:07:56;100318.19;;;13.74;100.00
43818;BME280;29868;47.360;18.984;2023-05-14T11:10:23;100311.22;;;13.73;100.00
43818;BME280;29868;47.360;18.984;2023-05-14T11:12:54;100317.31;;;13.72;100.00
43818;BME280;29868;47.360;18.984;2023-05-14T11:15:22;100309.47;;;13.69;100.00
43818;BME280;29868;47.360;18.984;2023-05-14T11:17:48;100303.34;;;13.49;100.00
43818;BME280;29868;47.360;18.984;2023-05-14T11:20:15;100298.13;;;13.52;100.00
43818;BME280;29868;47.360;18.984;2023-05-14T11:22:44;100304.22;;;13.51;100.00
43818;BME280;29868;47.360;18.984;2023-05-14T11:25:11;100304.22;;;13.51;100.00
43818;BME280;29868;47.360;18.984;2023-05-14T11:27:43;100308.59;;;13.56;100.00
43818;BME280;29868;47.360;18.984;2023-05-14T11:30:16;100309.47;;;13.57;100.00
43818;BME280;29868;47.360;18.984;2023-05-14T11:32:46;100307.69;;;13.51;100.00
43818;BME280;29868;47.360;18.984;2023-05-14T11:35:12;100309.44;;;13.49;100.00
43818;BME280;29868;47.360;18.984;2023-05-14T11:37:39;100303.34;;;13.52;100.00
43818;BME280;29868;47.360;18.984;2023-05-14T11:40:07;100301.53;;;13.37;100.00
43818;BME280;29868;47.360;18.984;2023-05-14T11:42:36;100301.53;;;13.31;100.00
43818;BME280;29868;47.360;18.984;2023-05-14T11:45:01;100301.53;;;13.28;100.00
43818;BME280;29868;47.360;18.984;2023-05-14T11:47:28;100296.31;;;13.29;100.00
43818;BME280;29868;47.360;18.984;2023-05-14T11:49:54;100290.25;;;13.30;100.00
43818;BME280;29868;47.360;18.984;2023-05-14T11:52:20;100284.16;;;13.30;100.00
43818;BME280;29868;47.360;18.984;2023-05-14T11:54:46;100278.03;;;13.23;100.00
43818;BME280;29868;47.360;18.984;2023-05-14T11:57:16;100267.63;;;13.35;100.00
43818;BME280;29868;47.360;18.984;2023-05-14T11:59:43;100272.00;;;13.35;100.00
43818;BME280;29868;47.360;18.984;2023-05-14T12:02:13;100265.91;;;13.41;100.00
43818;BME280;29868;47.360;18.984;2023-05-14T12:04:43;100265.03;;;13.38;100.00
43818;BME280;29868;47.360;18.984;2023-05-14T12:07:10;100265.06;;;13.54;100.00
43818;BME280;29868;47.360;18.984;2023-05-14T12:09:41;100254.63;;;13.54;100.00
43818;BME280;29868;47.360;18.984;2023-05-14T12:12:08;100246.81;;;13.51;100.00
43818;BME280;29868;47.360;18.984;2023-05-14T12:14:40;100244.16;;;13.45;100.00
43818;BME280;29868;47.360;18.984;2023-05-14T12:17:16;100234.59;;;13.41;100.00
43818;BME280;29868;47.360;18.984;2023-05-14T12:19:42;100229.34;;;13.25;100.00
43818;BME280;29868;47.360;18.984;2023-05-14T12:22:09;100232.84;;;13.30;100.00
43818;BME280;29868;47.360;18.984;2023-05-14T12:24:36;100238.94;;;13.31;100.00
43818;BME280;29868;47.360;18.984;2023-05-14T12:27:02;100238.03;;;13.26;100.00
43818;BME280;29868;47.360;18.984;2023-05-14T12:29:27;100238.00;;;13.21;100.00
43818;BME280;29868;47.360;18.984;2023-05-14T12:31:56;100230.16;;;13.12;100.00
43818;BME280;29868;47.360;18.984;2023-05-14T12:34:21;100233.63;;;13.09;100.00
43818;BME280;29868;47.360;18.984;2023-05-14T12:36:47;100232.75;;;13.09;100.00